createdAt,value
2022-08-19T00:01:30.285Z,23.02
2022-08-19T00:03:58.813Z,22.97
2022-08-19T00:06:26.548Z,23.00
2022-08-19T00:08:54.228Z,23.03
2022-08-19T00:11:26.058Z,23.05
2022-08-19T00:13:54.370Z,23.05
2022-08-19T00:16:26.786Z,23.07
2022-08-19T00:18:56.085Z,23.02
2022-08-19T00:21:24.245Z,22.98
2022-08-19T00:23:52.316Z,22.93
2022-08-19T00:26:20.039Z,22.82
2022-08-19T00:28:48.169Z,22.81
2022-08-19T00:31:17.212Z,22.83
2022-08-19T00:33:46.278Z,22.82
2022-08-19T00:36:14.382Z,22.82
2022-08-19T00:38:43.816Z,22.83
2022-08-19T00:41:12.004Z,22.80
2022-08-19T00:43:41.294Z,22.81
2022-08-19T00:46:09.344Z,22.83
2022-08-19T00:48:38.019Z,22.90
2022-08-19T00:51:07.959Z,22.86
2022-08-19T00:53:35.985Z,22.86
2022-08-19T00:56:07.122Z,22.88
2022-08-19T00:58:36.197Z,22.79
2022-08-19T01:01:05.273Z,22.71
2022-08-19T01:03:56.903Z,22.68
2022-08-19T01:06:22.126Z,22.73
2022-08-19T01:08:50.159Z,22.74
2022-08-19T01:11:18.447Z,22.76
2022-08-19T01:13:49.877Z,22.76
2022-08-19T01:16:20.603Z,22.75
2022-08-19T01:18:48.876Z,22.73
2022-08-19T01:21:23.838Z,22.67
2022-08-19T01:23:52.850Z,22.62
2022-08-19T01:26:23.676Z,22.52
2022-08-19T01:28:54.709Z,22.47
2022-08-19T01:31:32.766Z,22.46
2022-08-19T01:34:01.488Z,22.52
2022-08-19T01:36:32.441Z,22.52
2022-08-19T01:39:02.539Z,22.54
2022-08-19T01:41:30.156Z,22.57
2022-08-19T01:44:13.905Z,22.58
2022-08-19T01:46:46.868Z,22.67
2022-08-19T01:49:14.479Z,22.69
2022-08-19T01:51:42.088Z,22.64
2022-08-19T01:54:13.415Z,22.61
2022-08-19T01:56:41.123Z,22.62
2022-08-19T01:59:14.178Z,22.52
2022-08-19T02:01:42.662Z,22.46
2022-08-19T02:04:10.298Z,22.39
2022-08-19T02:06:38.230Z,22.26
2022-08-19T02:09:07.264Z,22.25
2022-08-19T02:11:38.420Z,22.23
2022-08-19T02:14:09.467Z,22.25
2022-08-19T02:16:38.247Z,22.32
2022-08-19T02:19:06.591Z,22.29
2022-08-19T02:21:34.492Z,22.23
2022-08-19T02:24:02.368Z,22.24
2022-08-19T02:26:30.430Z,22.27
2022-08-19T02:28:59.507Z,22.21
2022-08-19T02:31:28.837Z,22.21
2022-08-19T02:33:57.027Z,22.21
2022-08-19T02:36:26.245Z,22.21
2022-08-19T02:38:55.001Z,22.17
2022-08-19T02:41:26.896Z,22.20
2022-08-19T02:44:26.524Z,22.28
2022-08-19T02:46:45.648Z,22.32
2022-08-19T02:49:13.349Z,22.35
2022-08-19T02:51:44.493Z,22.38
2022-08-19T02:54:14.390Z,22.38
2022-08-19T02:56:43.489Z,22.36
2022-08-19T02:59:11.877Z,22.33
2022-08-19T03:01:41.556Z,22.31
2022-08-19T03:04:15.149Z,22.30
2022-08-19T03:06:44.551Z,22.32
2022-08-19T03:09:13.108Z,22.29
2022-08-19T03:11:41.439Z,22.14
2022-08-19T03:14:10.876Z,21.98
2022-08-19T03:16:44.278Z,21.88
2022-08-19T03:19:13.805Z,21.74
2022-08-19T03:21:41.421Z,21.84
2022-08-19T03:24:10.812Z,21.87
2022-08-19T03:26:41.439Z,21.91
2022-08-19T03:29:11.739Z,21.91
2022-08-19T03:31:52.565Z,21.86
2022-08-19T03:34:26.980Z,21.78
2022-08-19T03:36:55.886Z,21.78
2022-08-19T03:39:24.800Z,21.81
2022-08-19T03:42:32.734Z,21.89
2022-08-19T03:44:46.551Z,22.05
2022-08-19T03:47:16.962Z,22.04
2022-08-19T03:49:46.597Z,22.10
2022-08-19T03:52:15.053Z,22.11
2022-08-19T03:54:42.893Z,22.13
2022-08-19T03:57:11.297Z,22.11
2022-08-19T03:59:39.603Z,22.09
2022-08-19T04:02:10.666Z,21.81
2022-08-19T04:04:39.289Z,21.56
2022-08-19T04:07:09.235Z,21.68
2022-08-19T04:09:37.565Z,21.61
2022-08-19T04:12:07.173Z,21.73
2022-08-19T04:14:36.095Z,21.76
2022-08-19T04:17:05.493Z,21.62
2022-08-19T04:19:33.830Z,21.48
2022-08-19T04:22:01.577Z,21.43
2022-08-19T04:24:30.522Z,21.54
2022-08-19T04:26:59.099Z,21.54
2022-08-19T04:29:27.852Z,21.44
2022-08-19T04:31:57.253Z,21.41
2022-08-19T04:34:27.525Z,21.42
2022-08-19T04:36:57.024Z,21.43
2022-08-19T04:39:47.001Z,21.41
2022-08-19T04:42:33.595Z,21.41
2022-08-19T04:45:01.663Z,21.44
2022-08-19T04:47:51.409Z,21.36
2022-08-19T04:50:17.557Z,21.17
2022-08-19T04:52:46.777Z,21.17
2022-08-19T04:55:15.389Z,21.36
2022-08-19T04:57:44.324Z,21.48
2022-08-19T05:00:13.173Z,21.63
2022-08-19T05:02:41.401Z,21.52
2022-08-19T05:05:09.848Z,21.57
2022-08-19T05:07:39.043Z,21.53
2022-08-19T05:10:08.202Z,21.53
2022-08-19T05:12:35.896Z,21.44
2022-08-19T05:15:06.941Z,21.39
2022-08-19T05:17:38.244Z,21.38
2022-08-19T05:20:26.608Z,21.43
2022-08-19T05:22:54.470Z,21.32
2022-08-19T05:25:24.270Z,21.29
2022-08-19T05:27:51.907Z,21.42
2022-08-19T05:30:33.368Z,21.56
2022-08-19T05:33:10.874Z,21.60
2022-08-19T05:35:38.940Z,21.68
2022-08-19T05:38:08.080Z,21.46
2022-08-19T05:40:36.916Z,21.37
2022-08-19T05:43:05.396Z,21.36
2022-08-19T05:45:34.944Z,21.34
2022-08-19T05:48:02.563Z,21.36
2022-08-19T05:50:30.857Z,21.36
2022-08-19T05:52:58.687Z,21.38
2022-08-19T05:55:26.265Z,21.35
2022-08-19T05:57:53.903Z,21.38
2022-08-19T06:00:24.690Z,21.33
2022-08-19T06:02:55.635Z,21.40
2022-08-19T06:05:23.413Z,21.43
2022-08-19T06:07:51.008Z,21.61
2022-08-19T06:10:18.721Z,21.79
2022-08-19T06:12:46.336Z,21.97
2022-08-19T06:15:15.814Z,22.02
2022-08-19T06:17:45.221Z,22.00
2022-08-19T06:20:20.303Z,22.00
2022-08-19T06:22:57.432Z,22.03
2022-08-19T06:25:28.869Z,22.08
2022-08-19T06:28:14.663Z,22.18
2022-08-19T06:30:43.092Z,22.23
2022-08-19T06:33:10.671Z,22.28
2022-08-19T06:35:42.488Z,22.32
2022-08-19T06:38:10.329Z,22.16
2022-08-19T06:40:38.655Z,22.20
2022-08-19T06:43:08.623Z,22.13
2022-08-19T06:45:39.615Z,22.33
2022-08-19T06:48:08.272Z,22.47
2022-08-19T06:50:39.323Z,22.59
2022-08-19T06:53:08.740Z,22.69
2022-08-19T06:55:36.417Z,22.69
2022-08-19T06:58:04.991Z,22.69
2022-08-19T07:00:34.646Z,22.73
2022-08-19T07:03:06.084Z,22.82
2022-08-19T07:05:40.132Z,22.96
2022-08-19T07:08:14.365Z,23.00
2022-08-19T07:10:45.712Z,23.00
2022-08-19T07:13:13.421Z,22.96
2022-08-19T07:15:41.120Z,22.80
2022-08-19T07:18:11.620Z,22.87
2022-08-19T07:20:40.030Z,22.75
2022-08-19T07:23:09.532Z,22.80
2022-08-19T07:25:40.440Z,22.89
2022-08-19T07:28:22.422Z,22.97
2022-08-19T07:30:52.890Z,23.04
2022-08-19T07:33:20.668Z,23.23
2022-08-19T07:35:48.268Z,23.30
2022-08-19T07:38:17.074Z,23.40
2022-08-19T07:40:47.098Z,23.44
2022-08-19T07:43:17.068Z,23.55
2022-08-19T07:45:47.848Z,23.66
2022-08-19T07:48:15.812Z,23.68
2022-08-19T07:50:43.444Z,23.78
2022-08-19T07:53:12.711Z,23.60
2022-08-19T07:55:43.561Z,23.65
2022-08-19T07:58:16.731Z,23.67
2022-08-19T08:00:45.074Z,23.67
2022-08-19T08:03:13.744Z,23.76
2022-08-19T08:05:59.423Z,23.82
2022-08-19T08:08:48.177Z,23.90
2022-08-19T08:11:19.994Z,24.05
2022-08-19T08:14:00.945Z,24.01
2022-08-19T08:16:33.255Z,24.07
2022-08-19T08:19:02.565Z,24.16
2022-08-19T08:21:35.557Z,24.37
2022-08-19T08:24:03.294Z,24.60
2022-08-19T08:26:30.896Z,24.53
2022-08-19T08:29:12.302Z,24.40
2022-08-19T08:31:41.811Z,24.43
2022-08-19T08:34:10.093Z,24.51
2022-08-19T08:36:42.520Z,24.56
2022-08-19T08:39:10.301Z,24.76
2022-08-19T08:41:47.397Z,24.77
2022-08-19T08:44:22.098Z,24.95
2022-08-19T08:46:53.599Z,25.11
2022-08-19T08:49:32.373Z,25.13
2022-08-19T08:52:05.707Z,25.31
2022-08-19T08:54:35.533Z,25.39
2022-08-19T08:57:06.166Z,25.53
2022-08-19T08:59:38.910Z,25.82
2022-08-19T09:02:06.770Z,26.10
2022-08-19T09:04:45.333Z,26.45
2022-08-19T09:07:34.683Z,26.32
2022-08-19T09:10:10.067Z,26.47
2022-08-19T09:12:49.843Z,26.59
2022-08-19T09:15:29.938Z,26.74
2022-08-19T09:18:04.273Z,26.82
2022-08-19T09:20:35.111Z,26.84
2022-08-19T09:23:02.899Z,26.64
2022-08-19T09:25:31.681Z,26.54
2022-08-19T09:28:05.619Z,26.19
2022-08-19T09:30:43.929Z,26.37
2022-08-19T09:33:11.573Z,26.38
2022-08-19T09:35:50.149Z,26.25
2022-08-19T09:38:21.154Z,26.28
2022-08-19T09:40:48.910Z,26.21
2022-08-19T09:43:33.640Z,26.50
2022-08-19T09:46:03.702Z,26.37
2022-08-19T09:48:31.262Z,26.44
2022-08-19T09:51:05.190Z,26.52
2022-08-19T09:53:32.841Z,26.58
2022-08-19T09:56:04.216Z,26.71
2022-08-19T09:58:32.065Z,26.82
2022-08-19T10:01:02.287Z,26.80
2022-08-19T10:03:32.544Z,26.82
2022-08-19T10:06:01.819Z,26.57
2022-08-19T10:08:32.257Z,26.72
2022-08-19T10:11:00.105Z,26.78
2022-08-19T10:13:49.273Z,27.09
2022-08-19T10:16:22.407Z,27.26
2022-08-19T10:18:58.716Z,27.34
2022-08-19T10:21:29.256Z,27.40
2022-08-19T10:24:04.772Z,27.47
2022-08-19T10:26:34.913Z,27.45
2022-08-19T10:29:02.698Z,27.53
2022-08-19T10:31:58.828Z,27.56
2022-08-19T10:34:28.044Z,27.82
2022-08-19T10:37:00.947Z,28.15
2022-08-19T10:39:30.541Z,28.12
2022-08-19T10:41:58.654Z,27.80
2022-08-19T10:44:32.291Z,27.86
2022-08-19T10:47:00.966Z,27.60
2022-08-19T10:49:30.104Z,27.50
2022-08-19T10:52:18.058Z,27.64
2022-08-19T10:55:08.282Z,27.94
2022-08-19T11:00:26.301Z,28.34
2022-08-19T11:02:53.928Z,28.70
2022-08-19T11:05:24.193Z,29.05
2022-08-19T11:07:52.827Z,28.76
2022-08-19T11:10:22.060Z,28.56
2022-08-19T11:12:51.557Z,28.34
2022-08-19T11:15:19.297Z,28.33
2022-08-19T11:17:46.915Z,28.54
2022-08-19T11:20:16.809Z,28.96
2022-08-19T11:22:45.771Z,29.40
2022-08-19T11:25:15.526Z,29.26
2022-08-19T11:27:44.440Z,28.94
2022-08-19T11:30:14.702Z,29.04
2022-08-19T11:32:48.554Z,29.22
2022-08-19T11:35:17.360Z,29.20
2022-08-19T11:37:46.289Z,29.52
2022-08-19T11:40:14.018Z,29.48
2022-08-19T11:42:57.042Z,29.56
2022-08-19T11:45:25.094Z,29.70
2022-08-19T11:47:52.902Z,29.81
2022-08-19T11:50:20.933Z,29.89
2022-08-19T11:52:50.573Z,29.72
2022-08-19T11:55:18.381Z,29.65
2022-08-19T11:57:46.255Z,29.49
2022-08-19T12:00:16.234Z,29.36
2022-08-19T12:02:44.250Z,29.75
2022-08-19T12:05:13.154Z,30.34
2022-08-19T12:07:41.712Z,30.81
2022-08-19T12:10:11.570Z,30.56
2022-08-19T12:12:41.286Z,30.01
2022-08-19T12:15:11.837Z,29.92
2022-08-19T12:17:40.421Z,29.72
2022-08-19T12:20:09.753Z,29.54
2022-08-19T12:22:37.712Z,29.29
2022-08-19T12:25:07.459Z,28.73
2022-08-19T12:27:40.663Z,28.40
2022-08-19T12:30:14.129Z,28.31
2022-08-19T12:32:41.758Z,28.26
2022-08-19T12:35:12.309Z,28.31
2022-08-19T12:37:45.269Z,28.33
2022-08-19T12:40:24.265Z,28.24
2022-08-19T12:42:56.177Z,28.16
2022-08-19T12:45:23.774Z,27.78
2022-08-19T12:47:54.813Z,27.70
2022-08-19T12:50:23.216Z,27.49
2022-08-19T12:52:50.823Z,27.45
2022-08-19T12:55:19.522Z,27.41
2022-08-19T12:57:48.268Z,27.21
2022-08-19T13:00:21.915Z,27.24
2022-08-19T13:02:51.573Z,27.29
2022-08-19T13:05:23.473Z,27.33
2022-08-19T13:07:53.235Z,27.40
2022-08-19T13:10:22.572Z,27.36
2022-08-19T13:12:52.531Z,27.42
2022-08-19T13:15:24.132Z,27.31
2022-08-19T13:17:54.835Z,27.71
2022-08-19T13:20:24.016Z,28.68
2022-08-19T13:22:52.398Z,29.52
2022-08-19T13:25:20.761Z,30.34
2022-08-19T13:27:50.122Z,30.50
2022-08-19T13:30:36.399Z,30.19
2022-08-19T13:33:12.580Z,29.70
2022-08-19T13:35:40.929Z,29.43
2022-08-19T13:38:11.937Z,29.29
2022-08-19T13:40:41.159Z,29.12
2022-08-19T13:43:22.356Z,28.85
2022-08-19T13:45:53.476Z,28.64
2022-08-19T13:48:22.757Z,28.52
2022-08-19T13:50:50.494Z,28.47
2022-08-19T13:53:18.821Z,28.48
2022-08-19T13:55:47.429Z,28.42
2022-08-19T13:58:15.520Z,28.56
2022-08-19T14:00:47.281Z,28.73
2022-08-19T14:03:15.133Z,29.02
2022-08-19T14:05:44.132Z,29.52
2022-08-19T14:08:15.001Z,29.86
2022-08-19T14:10:44.973Z,30.26
2022-08-19T14:13:16.648Z,30.53
2022-08-19T14:15:44.241Z,30.70
2022-08-19T14:18:12.200Z,30.88
2022-08-19T14:20:39.915Z,30.90
2022-08-19T14:23:08.854Z,30.99
2022-08-19T14:25:36.482Z,31.03
2022-08-19T14:28:04.502Z,30.91
2022-08-19T14:30:35.716Z,30.81
2022-08-19T14:33:03.932Z,30.65
2022-08-19T14:35:35.501Z,30.50
2022-08-19T14:38:04.324Z,30.27
2022-08-19T14:40:33.912Z,30.15
2022-08-19T14:43:05.048Z,30.23
2022-08-19T14:45:34.221Z,30.54
2022-08-19T14:48:01.961Z,30.89
2022-08-19T14:50:29.971Z,31.31
2022-08-19T14:53:05.307Z,31.68
2022-08-19T14:55:38.393Z,31.61
2022-08-19T14:58:08.183Z,31.74
2022-08-19T15:00:37.105Z,31.42
2022-08-19T15:03:05.058Z,31.24
2022-08-19T15:05:32.874Z,31.07
2022-08-19T15:08:05.222Z,31.13
2022-08-19T15:10:32.852Z,31.14
2022-08-19T15:13:01.798Z,31.13
2022-08-19T15:15:29.412Z,30.95
2022-08-19T15:18:02.975Z,30.72
2022-08-19T15:20:31.585Z,30.46
2022-08-19T15:23:00.505Z,30.10
2022-08-19T15:25:29.281Z,29.78
2022-08-19T15:27:57.214Z,29.48
2022-08-19T15:30:29.053Z,29.30
2022-08-19T15:32:57.251Z,29.21
2022-08-19T15:35:26.130Z,29.05
2022-08-19T15:37:55.240Z,28.86
2022-08-19T15:40:25.156Z,28.80
2022-08-19T15:42:54.008Z,28.70
2022-08-19T15:45:23.048Z,28.56
2022-08-19T15:47:52.027Z,28.52
2022-08-19T15:50:22.048Z,28.57
2022-08-19T15:52:53.136Z,28.51
2022-08-19T15:55:33.736Z,28.50
2022-08-19T15:58:27.957Z,28.52
2022-08-19T16:01:15.957Z,28.60
2022-08-19T16:04:02.496Z,28.68
2022-08-19T16:06:32.601Z,28.78
2022-08-19T16:09:02.768Z,28.92
2022-08-19T16:11:39.168Z,29.03
2022-08-19T16:14:09.527Z,29.06
2022-08-19T16:16:38.312Z,29.16
2022-08-19T16:19:11.685Z,29.12
2022-08-19T16:21:41.635Z,29.13
2022-08-19T16:24:11.936Z,28.90
2022-08-19T16:26:40.163Z,28.85
2022-08-19T16:29:12.018Z,28.86
2022-08-19T16:31:42.099Z,28.86
2022-08-19T16:34:11.789Z,28.83
2022-08-19T16:36:42.135Z,28.75
2022-08-19T16:39:11.493Z,28.72
2022-08-19T16:41:40.464Z,28.78
2022-08-19T16:44:09.780Z,28.82
2022-08-19T16:46:39.687Z,28.84
2022-08-19T16:49:07.937Z,28.88
2022-08-19T16:51:37.332Z,28.83
2022-08-19T16:54:07.058Z,28.96
2022-08-19T16:56:35.003Z,29.33
2022-08-19T16:59:02.942Z,29.95
2022-08-19T17:01:31.064Z,30.35
2022-08-19T17:03:58.936Z,30.35
2022-08-19T17:06:30.668Z,30.41
2022-08-19T17:09:01.849Z,30.47
2022-08-19T17:11:31.497Z,30.21
2022-08-19T17:13:59.154Z,29.92
2022-08-19T17:16:30.244Z,29.62
2022-08-19T17:19:00.720Z,29.47
2022-08-19T17:21:29.794Z,29.26
2022-08-19T17:23:59.890Z,29.23
2022-08-19T17:26:28.523Z,29.17
2022-08-19T17:28:57.668Z,28.98
2022-08-19T17:31:27.368Z,28.84
2022-08-19T17:33:56.071Z,28.63
2022-08-19T17:36:26.261Z,28.49
2022-08-19T17:38:58.055Z,28.32
2022-08-19T17:41:30.356Z,28.17
2022-08-19T17:43:58.623Z,27.94
2022-08-19T17:46:26.401Z,27.83
2022-08-19T17:48:57.418Z,27.79
2022-08-19T17:51:40.327Z,27.77
2022-08-19T17:54:10.687Z,27.66
2022-08-19T17:56:39.706Z,27.58
2022-08-19T17:59:09.097Z,27.45
2022-08-19T18:01:53.516Z,27.12
2022-08-19T18:04:24.654Z,26.42
2022-08-19T18:06:54.374Z,25.89
2022-08-19T18:09:25.125Z,25.56
2022-08-19T18:11:56.591Z,25.29
2022-08-19T18:14:33.282Z,25.10
2022-08-19T18:17:05.353Z,25.06
2022-08-19T18:19:41.571Z,25.02
2022-08-19T18:22:12.084Z,24.93
2022-08-19T18:24:40.419Z,24.83
2022-08-19T18:27:09.819Z,24.68
2022-08-19T18:29:38.371Z,24.49
2022-08-19T18:32:12.548Z,24.28
2022-08-19T18:34:41.001Z,24.23
2022-08-19T18:37:08.709Z,23.79
2022-08-19T18:39:53.876Z,23.55
2022-08-19T18:42:40.280Z,23.62
2022-08-19T18:45:25.996Z,23.48
2022-08-19T18:48:25.753Z,23.32
2022-08-19T18:50:56.695Z,23.25
2022-08-19T18:53:24.347Z,23.20
2022-08-19T18:55:54.869Z,23.13
2022-08-19T18:58:26.376Z,23.21
2022-08-19T19:00:56.672Z,23.23
2022-08-19T19:03:24.655Z,23.20
2022-08-19T19:05:52.656Z,23.20
2022-08-19T19:08:20.649Z,23.17
2022-08-19T19:10:54.568Z,23.05
2022-08-19T19:13:22.195Z,23.00
2022-08-19T19:15:51.498Z,22.98
2022-08-19T19:18:19.097Z,23.05
2022-08-19T19:20:46.718Z,23.05
2022-08-19T19:23:14.301Z,23.07
2022-08-19T19:25:50.050Z,23.05
2022-08-19T19:28:18.503Z,23.01
2022-08-19T19:30:46.104Z,22.97
2022-08-19T19:33:15.169Z,22.94
2022-08-19T19:35:45.813Z,22.87
2022-08-19T19:38:14.994Z,22.88
2022-08-19T19:40:42.625Z,22.81
2022-08-19T19:43:10.280Z,22.82
2022-08-19T19:45:37.933Z,22.75
2022-08-19T19:48:06.050Z,22.62
2022-08-19T19:50:34.949Z,22.60
2022-08-19T19:53:02.575Z,22.63
2022-08-19T19:55:30.189Z,22.66
2022-08-19T19:57:58.341Z,22.67
2022-08-19T20:00:26.682Z,22.63
2022-08-19T20:02:55.183Z,22.65
2022-08-19T20:05:23.577Z,22.67
2022-08-19T20:08:12.134Z,22.69
2022-08-19T20:10:40.967Z,22.72
2022-08-19T20:13:09.314Z,22.74
2022-08-19T20:15:42.307Z,22.78
2022-08-19T20:18:10.118Z,22.83
2022-08-19T20:20:37.879Z,22.82
2022-08-19T20:23:07.272Z,22.81
2022-08-19T20:25:35.136Z,22.78
2022-08-19T20:28:05.490Z,22.78
2022-08-19T20:30:33.302Z,22.79
2022-08-19T20:33:01.881Z,22.76
2022-08-19T20:35:29.536Z,22.78
2022-08-19T20:37:59.757Z,22.79
2022-08-19T20:40:29.687Z,22.78
2022-08-19T20:42:57.472Z,22.79
2022-08-19T20:45:33.534Z,22.83
2022-08-19T20:48:02.715Z,22.83
2022-08-19T20:50:30.943Z,22.87
2022-08-19T20:52:58.600Z,22.84
2022-08-19T20:55:26.429Z,22.84
2022-08-19T20:57:56.423Z,22.83
2022-08-19T21:00:24.120Z,22.84
2022-08-19T21:02:51.718Z,22.84
2022-08-19T21:05:19.473Z,22.85
2022-08-19T21:07:47.150Z,22.87
2022-08-19T21:10:15.292Z,22.88
2022-08-19T21:12:44.312Z,22.85
2022-08-19T21:15:13.586Z,22.87
2022-08-19T21:17:41.240Z,22.83
2022-08-19T21:20:10.280Z,22.86
2022-08-19T21:22:37.968Z,22.85
2022-08-19T21:25:06.829Z,22.84
2022-08-19T21:27:34.455Z,22.83
2022-08-19T21:30:02.116Z,22.86
2022-08-19T21:32:31.109Z,22.82
2022-08-19T21:34:58.724Z,22.82
2022-08-19T21:37:26.420Z,22.79
2022-08-19T21:39:54.343Z,22.75
2022-08-19T21:42:22.365Z,22.74
2022-08-19T21:44:50.110Z,22.72
2022-08-19T21:47:17.800Z,22.72
2022-08-19T21:49:47.010Z,22.72
2022-08-19T21:52:14.973Z,22.70
2022-08-19T21:54:42.727Z,22.64
2022-08-19T21:57:11.069Z,22.63
2022-08-19T21:59:39.593Z,22.53
2022-08-19T22:02:19.466Z,22.55
2022-08-19T22:04:50.104Z,22.52
2022-08-19T22:07:17.777Z,22.47
2022-08-19T22:09:46.962Z,22.44
2022-08-19T22:12:23.951Z,22.51
2022-08-19T22:14:52.801Z,22.62
2022-08-19T22:17:22.257Z,22.66
2022-08-19T22:19:52.324Z,22.57
2022-08-19T22:22:25.653Z,22.55
2022-08-19T22:24:53.638Z,22.58
2022-08-19T22:27:21.624Z,22.51
2022-08-19T22:29:52.639Z,22.57
2022-08-19T22:32:28.018Z,22.51
2022-08-19T22:35:00.787Z,22.58
2022-08-19T22:37:31.657Z,22.54
2022-08-19T22:40:00.472Z,22.51
2022-08-19T22:42:31.932Z,22.50
2022-08-19T22:45:01.567Z,22.43
2022-08-19T22:47:30.223Z,22.44
2022-08-19T22:50:03.211Z,22.35
2022-08-19T22:52:31.646Z,22.42
2022-08-19T22:55:02.939Z,22.45
2022-08-19T22:57:30.565Z,22.38
2022-08-19T22:59:58.932Z,22.41
2022-08-19T23:02:34.437Z,22.44
2022-08-19T23:05:04.335Z,22.44
2022-08-19T23:07:32.033Z,22.42
2022-08-19T23:10:00.075Z,22.36
2022-08-19T23:12:30.545Z,22.31
2022-08-19T23:15:02.648Z,22.26
2022-08-19T23:17:30.207Z,22.22
2022-08-19T23:19:57.930Z,22.16
2022-08-19T23:22:27.349Z,22.14
2022-08-19T23:24:56.192Z,22.04
2022-08-19T23:27:41.393Z,21.95
2022-08-19T23:30:29.049Z,21.92
2022-08-19T23:33:00.817Z,21.85
2022-08-19T23:35:34.707Z,21.89
2022-08-19T23:38:04.714Z,21.81
2022-08-19T23:40:32.455Z,21.71
2022-08-19T23:43:00.105Z,21.63
2022-08-19T23:45:28.346Z,21.72
2022-08-19T23:48:00.376Z,21.81
2022-08-19T23:50:28.211Z,21.85
2022-08-19T23:52:59.697Z,21.82
2022-08-19T23:55:32.197Z,21.91
2022-08-19T23:58:00.773Z,21.98
